nws-alerts: Checking more than four warning/county codes can delay the loading of your pages. You should use a cron job to get the data.

Nearby METAR Reports

 

KOXC - Oxford/Waterbury, Connecticut, USA
Distance from station: NW 7mi, 11km
Updated: 12/03/2021 11:51pm
Partly cloudy
Partly cloudy
 Wind from calm
Wind: Calm
Temperature: 28°F , -2°C
Dew Point: 18°F , -8°C
Humidity: 64%
Barometer: 30.06 inHg , 1017.9 hPa
Clouds: Partly cloudy
Visibility: 10 miles , 16 km
Cloud details: Partly cloudy 10000 ft
2021/12/04 04:51 KOXC 040451Z AUTO 00000KT 10SM SCT100 M02/M08 A3006 RMK AO2 SLP197 T10221083 400671022 FZRANO
KHVN - New Haven/Tweed, Connecticut, USA
Distance from station: SE 13mi, 20km
Updated: 12/03/2021 11:53pm
Mostly cloudy
Mostly cloudy
 Wind from NW
Wind: NW 5 mph , 7 km/h
Temperature: 36°F , 2°C
Wind Chill: 32°F , 0°C
Dew Point: 21°F , -6°C
Humidity: 56%
Barometer: 30.08 inHg , 1018.6 hPa
Clouds: Mostly cloudy
Visibility: 10 miles , 16 km
Cloud details: Mostly cloudy 12000 ft
2021/12/04 04:53 KHVN 040453Z AUTO 31004KT 10SM BKN120 02/M06 A3008 RMK AO2 SLP184 T00221056 401060011
 
KMMK - Meriden, Connecticut, USA
Distance from station: NE 13mi, 21km
Updated: 12/03/2021 11:53pm
Clear
Clear
 Wind from calm
Wind: Calm
Temperature: 25°F , -4°C
Dew Point: 19°F , -7°C
Humidity: 80%
Barometer: 30.08 inHg , 1018.6 hPa
Clouds: Clear
Visibility: 10 miles , 16 km
2021/12/04 04:53 KMMK 040453Z AUTO 00000KT 10SM CLR M04/M07 A3008 RMK AO2 SLP187 T10441072 400831056
KBDR - Bridgeport, Connecticut, USA
Distance from station: SSW 17mi, 27km
Updated: 12/03/2021 11:52pm
Overcast
Overcast
 Wind from calm
Wind: Calm
Temperature: 34°F , 1°C
Dew Point: 21°F , -6°C
Humidity: 60%
Barometer: 30.08 inHg , 1018.6 hPa
Clouds: Overcast
Visibility: 10 miles , 16 km
Cloud details: Overcast 12000 ft
2021/12/04 04:52 KBDR 040452Z AUTO 00000KT 10SM OVC120 01/M06 A3008 RMK AO2 SLP186 T00111061 400830000
 
KDXR - Danbury, Connecticut, USA
Distance from station: W 23mi, 38km
Updated: 12/03/2021 11:53pm
Overcast
Overcast
 Wind from calm
Wind: Calm
Temperature: 30°F , -1°C
Dew Point: 19°F , -7°C
Humidity: 64%
Barometer: 30.07 inHg , 1018.3 hPa
Clouds: Overcast
Visibility: 10 miles , 16 km
Cloud details: Overcast 11000 ft
2021/12/04 04:53 KDXR 040453Z AUTO 00000KT 10SM OVC110 M01/M07 A3007 RMK AO2 SLP186 T10111067 400831017